Time;durP1;ratioP1;P1;durP2;ratioP2;P2;SDS_P1;SDS_P2;PMS_P1;PMS_P2;Temp;Humidity;BMP_temperature;BMP_pressure;BME280_temperature;BME280_humidity;BME280_pressure;Samples;Min_cycle;Max_cycle;Signal;HPM_P1;HPM_P2
2023/01/26 00:01:37;;;;;;;16.20;8.03;;;-1.00;99.90;;;;;;4195580;28;20261;-68
2023/01/26 00:03:39;;;;;;;14.13;7.30;;;-1.00;99.90;;;;;;4194537;28;20265;-66
2023/01/26 00:05:40;;;;;;;16.33;7.27;;;-1.00;99.90;;;;;;4192057;28;20281;-68
2023/01/26 00:07:44;;;;;;;19.20;7.77;;;-1.00;99.90;;;;;;4188544;28;20346;-66
2023/01/26 00:09:45;;;;;;;18.73;7.83;;;-1.00;99.90;;;;;;4182208;28;20295;-68
2023/01/26 00:11:46;;;;;;;14.37;7.33;;;-1.00;99.90;;;;;;4195268;28;20250;-67
2023/01/26 00:13:49;;;;;;;18.07;7.67;;;-1.00;99.90;;;;;;4193208;28;20249;-69
2023/01/26 00:15:50;;;;;;;20.27;7.57;;;-1.00;99.90;;;;;;4178621;28;20335;-67
2023/01/26 00:17:51;;;;;;;14.43;6.73;;;-1.00;99.90;;;;;;4178019;28;20335;-70
2023/01/26 00:19:57;;;;;;;16.87;8.47;;;-1.00;99.90;;;;;;4178789;28;20302;-68
2023/01/26 00:21:58;;;;;;;14.13;7.87;;;-1.00;99.90;;;;;;4177635;28;20328;-67
2023/01/26 00:23:59;;;;;;;14.67;7.70;;;-1.00;99.90;;;;;;4178886;28;20266;-67
2023/01/26 00:26:01;;;;;;;14.70;7.30;;;-0.90;99.90;;;;;;4177828;28;20733;-66
2023/01/26 00:28:02;;;;;;;16.70;7.83;;;-0.90;99.90;;;;;;4178820;28;20348;-68
2023/01/26 00:30:04;;;;;;;12.57;6.87;;;-0.90;99.90;;;;;;4177703;28;20262;-66
2023/01/26 00:32:05;;;;;;;14.50;6.97;;;-0.90;99.90;;;;;;4178653;28;20312;-69
2023/01/26 00:34:06;;;;;;;14.00;6.60;;;-0.90;99.90;;;;;;4177408;28;20669;-67
2023/01/26 00:36:08;;;;;;;14.90;6.80;;;-0.90;99.90;;;;;;4178999;28;20286;-67
2023/01/26 00:38:12;;;;;;;14.33;6.90;;;-1.00;99.90;;;;;;4185489;28;20269;-66
2023/01/26 00:40:14;;;;;;;12.00;5.63;;;-0.90;99.90;;;;;;4180620;28;20282;-66
2023/01/26 00:42:15;;;;;;;14.13;6.70;;;-0.90;99.90;;;;;;4189251;28;20270;-68
2023/01/26 00:44:16;;;;;;;15.80;7.00;;;-0.90;99.90;;;;;;4194679;28;20307;-72
2023/01/26 00:46:17;;;;;;;15.07;6.53;;;-0.90;99.90;;;;;;4194245;28;20296;-68
2023/01/26 00:48:18;;;;;;;14.50;6.67;;;-0.90;99.90;;;;;;4194194;28;20293;-69
2023/01/26 00:50:19;;;;;;;18.40;7.70;;;-0.90;99.90;;;;;;4194682;28;20250;-68
2023/01/26 00:52:20;;;;;;;15.23;6.50;;;-0.90;99.90;;;;;;4186333;28;20676;-70
2023/01/26 00:54:22;;;;;;;14.07;6.30;;;-0.80;99.90;;;;;;4178533;28;20270;-68
2023/01/26 00:56:26;;;;;;;11.00;5.97;;;-0.80;99.90;;;;;;4177330;28;20269;-67
2023/01/26 00:58:27;;;;;;;13.17;6.13;;;-0.80;99.90;;;;;;4178827;28;20315;-68
2023/01/26 01:00:29;;;;;;;10.53;5.47;;;-0.80;99.90;;;;;;4177206;28;20261;-67
2023/01/26 01:02:31;;;;;;;14.40;6.93;;;-0.80;99.90;;;;;;4178570;28;20254;-67
2023/01/26 01:04:32;;;;;;;11.10;5.63;;;-0.90;99.90;;;;;;4183011;28;20328;-67
2023/01/26 01:06:33;;;;;;;10.10;5.50;;;-0.80;99.90;;;;;;4185815;28;20278;-68
2023/01/26 01:08:34;;;;;;;13.73;6.27;;;-0.90;99.90;;;;;;4178877;28;20302;-70
2023/01/26 01:10:35;;;;;;;13.17;6.00;;;-0.90;99.90;;;;;;4180438;28;20277;-70
2023/01/26 01:12:36;;;;;;;11.77;6.30;;;-0.90;99.90;;;;;;4177384;28;20266;-66
2023/01/26 01:14:37;;;;;;;10.60;5.83;;;-0.90;99.90;;;;;;4178192;28;20320;-69
2023/01/26 01:16:39;;;;;;;10.10;5.60;;;-0.90;99.90;;;;;;4178700;28;20281;-69
2023/01/26 01:18:41;;;;;;;16.53;6.40;;;-0.90;99.90;;;;;;4177297;28;20332;-71
2023/01/26 01:20:42;;;;;;;14.70;5.73;;;-0.80;99.90;;;;;;4177888;28;20266;-67
2023/01/26 01:22:43;;;;;;;12.33;6.07;;;-0.90;99.90;;;;;;4177033;28;20340;-69
2023/01/26 01:24:45;;;;;;;15.77;6.60;;;-0.80;99.90;;;;;;4178083;28;20262;-69
2023/01/26 01:26:46;;;;;;;12.57;5.37;;;-0.90;99.90;;;;;;4177047;28;20927;-67
2023/01/26 01:28:47;;;;;;;13.00;5.70;;;-0.90;99.90;;;;;;4178367;28;20708;-66
2023/01/26 01:30:48;;;;;;;13.00;6.03;;;-0.90;99.90;;;;;;4176938;28;20266;-68
2023/01/26 01:32:51;;;;;;;11.20;5.63;;;-0.90;99.90;;;;;;4178283;28;20309;-68
2023/01/26 01:34:52;;;;;;;13.17;6.00;;;-0.90;99.90;;;;;;4176801;28;20259;-67
2023/01/26 01:36:53;;;;;;;9.93;5.70;;;-0.90;99.90;;;;;;4178322;28;20278;-67
2023/01/26 01:38:54;;;;;;;10.17;4.97;;;-0.90;99.90;;;;;;4176955;28;20387;-67
2023/01/26 01:40:55;;;;;;;13.37;6.20;;;-0.90;99.90;;;;;;4178307;28;20328;-69
2023/01/26 01:42:56;;;;;;;11.83;5.53;;;-0.80;99.90;;;;;;4177292;28;20320;-67
2023/01/26 01:45:22;;;;;;;10.97;5.33;;;-0.80;99.90;;;;;;4177891;28;20262;-68
2023/01/26 01:47:25;;;;;;;10.80;5.83;;;-0.80;99.90;;;;;;4176871;28;20312;-68
2023/01/26 01:49:39;;;;;;;13.87;7.23;;;-0.80;99.90;;;;;;4177656;28;20306;-68
2023/01/26 01:51:49;;;;;;;13.77;5.53;;;-0.80;99.90;;;;;;4177024;28;20331;-67
2023/01/26 01:53:52;;;;;;;10.93;5.72;;;-0.80;99.90;;;;;;4177983;28;20258;-67
2023/01/26 01:56:00;;;;;;;13.60;6.70;;;-0.80;99.90;;;;;;4177049;28;20045;-67
2023/01/26 01:58:02;;;;;;;12.87;6.03;;;-0.80;99.90;;;;;;4177705;28;20257;-68
2023/01/26 02:00:11;;;;;;;16.13;7.40;;;-0.80;99.90;;;;;;4176983;28;20278;-67
2023/01/26 02:02:13;;;;;;;13.17;6.40;;;-0.80;99.90;;;;;;4177777;28;20308;-69
2023/01/26 02:04:14;;;;;;;13.00;5.77;;;-0.90;99.90;;;;;;4186639;28;20338;-68
2023/01/26 02:06:25;;;;;;;12.37;5.87;;;-0.90;99.90;;;;;;4196742;28;20691;-68
2023/01/26 02:08:39;;;;;;;14.13;6.15;;;-0.90;99.90;;;;;;4196634;28;20339;-65
2023/01/26 02:10:43;;;;;;;12.87;6.17;;;-0.90;99.90;;;;;;4180101;28;20029;-66
2023/01/26 02:12:48;;;;;;;15.20;6.07;;;-0.90;99.90;;;;;;4187060;28;20774;-69
2023/01/26 02:14:51;;;;;;;12.87;6.07;;;-0.90;99.90;;;;;;4182167;28;20312;-66
2023/01/26 02:16:53;;;;;;;11.77;5.70;;;-0.80;99.90;;;;;;4197110;28;20270;-65
2023/01/26 02:18:54;;;;;;;10.20;5.47;;;-0.80;99.90;;;;;;4196019;28;20274;-70
2023/01/26 02:21:10;;;;;;;12.20;6.00;;;-0.90;99.90;;;;;;4197196;28;20269;-70
2023/01/26 02:23:25;;;;;;;12.33;5.87;;;-0.80;99.90;;;;;;4194194;28;20312;-67
2023/01/26 02:25:52;;;;;;;10.90;5.20;;;-0.80;99.90;;;;;;4197108;28;20691;-65
2023/01/26 02:27:54;;;;;;;11.93;5.60;;;-0.90;99.90;;;;;;4196709;28;20327;-65
2023/01/26 02:29:58;;;;;;;11.77;6.87;;;-0.90;99.90;;;;;;4196588;28;20297;-68
2023/01/26 02:31:59;;;;;;;12.73;5.87;;;-0.90;99.90;;;;;;4181171;28;20278;-71
2023/01/26 02:34:00;;;;;;;11.37;6.20;;;-0.90;99.90;;;;;;4180599;28;20266;-67
2023/01/26 02:36:03;;;;;;;9.50;5.13;;;-0.90;99.90;;;;;;4179532;28;20316;-67
2023/01/26 02:38:04;;;;;;;14.00;6.03;;;-0.90;99.90;;;;;;4180575;28;20266;-66
2023/01/26 02:40:30;;;;;;;13.97;6.23;;;-0.90;99.90;;;;;;4181301;28;20363;-65
2023/01/26 02:42:37;;;;;;;11.40;6.33;;;-0.90;99.90;;;;;;4180467;28;20282;-66
2023/01/26 02:44:39;;;;;;;11.70;5.87;;;-0.90;99.90;;;;;;4179338;28;20258;-67
2023/01/26 02:46:40;;;;;;;11.47;5.43;;;-0.90;99.90;;;;;;4180519;28;20312;-67
2023/01/26 02:51:02;;;;;;;12.57;5.60;;;-0.90;99.90;;;;;;4180256;28;20324;-65
2023/01/26 02:53:03;;;;;;;14.93;6.47;;;-0.90;99.90;;;;;;4179040;28;20270;-66
2023/01/26 02:57:25;;;;;;;13.55;6.13;;;-0.90;99.90;;;;;;4182566;28;20347;-66
2023/01/26 02:59:26;;;;;;;10.33;5.47;;;-0.90;99.90;;;;;;4180162;28;20041;-67
2023/01/26 03:01:27;;;;;;;12.80;5.63;;;-0.90;99.90;;;;;;4191119;28;20338;-67
2023/01/26 03:03:40;;;;;;;11.77;5.53;;;-0.90;99.90;;;;;;4188129;28;20331;-67
2023/01/26 03:05:41;;;;;;;9.23;4.67;;;-0.90;99.90;;;;;;4179112;28;20615;-69
2023/01/26 03:07:42;;;;;;;10.93;5.30;;;-0.90;99.90;;;;;;4179971;28;20386;-65
2023/01/26 03:09:43;;;;;;;9.47;5.00;;;-0.80;99.90;;;;;;4182644;28;20295;-66
2023/01/26 03:11:45;;;;;;;9.43;4.87;;;-0.80;99.90;;;;;;4186352;28;20343;-66
2023/01/26 03:13:46;;;;;;;13.80;5.53;;;-0.80;99.90;;;;;;4178885;28;20738;-67
2023/01/26 03:15:53;;;;;;;9.13;4.30;;;-0.80;99.90;;;;;;4181531;28;20347;-67
2023/01/26 03:27:27;;;;;;;10.25;5.13;;;-0.80;99.90;;;;;;4178803;28;20335;-67
2023/01/26 03:29:29;;;;;;;11.17;5.10;;;-0.80;99.90;;;;;;4179683;28;20099;-66
2023/01/26 03:31:30;;;;;;;15.33;5.67;;;-0.70;99.90;;;;;;4178491;28;20282;-68
2023/01/26 03:33:31;;;;;;;9.77;4.97;;;-0.70;99.90;;;;;;4179486;28;20339;-67
2023/01/26 03:35:32;;;;;;;10.00;5.13;;;-0.70;99.90;;;;;;4178381;28;20312;-66
2023/01/26 03:37:35;;;;;;;9.23;5.43;;;-0.70;99.90;;;;;;4179663;28;20312;-68
2023/01/26 03:58:14;;;;;;;11.87;5.67;;;-0.70;99.90;;;;;;4194463;28;20097;-66
2023/01/26 04:00:15;;;;;;;8.97;5.43;;;-0.70;99.90;;;;;;4195766;28;21258;-67
2023/01/26 04:09:15;;;;;;;8.53;4.93;;;-0.80;99.90;;;;;;4178813;28;20363;-69
2023/01/26 04:11:16;;;;;;;11.67;5.80;;;-0.80;99.90;;;;;;4178067;28;20311;-66
2023/01/26 04:22:42;;;;;;;12.73;5.27;;;-0.80;99.90;;;;;;4178246;28;20312;-69
2023/01/26 04:24:43;;;;;;;10.33;5.20;;;-0.70;99.90;;;;;;4178374;28;20262;-70
2023/01/26 04:26:44;;;;;;;11.27;5.70;;;-0.70;99.90;;;;;;4178077;28;20737;-67
2023/01/26 04:28:45;;;;;;;11.57;5.10;;;-0.70;99.90;;;;;;4181675;28;20361;-67
2023/01/26 04:30:46;;;;;;;10.17;5.43;;;-0.70;99.90;;;;;;4194866;28;20703;-68
2023/01/26 04:32:50;;;;;;;11.57;5.77;;;-0.70;99.90;;;;;;4193652;28;20807;-68
2023/01/26 04:34:52;;;;;;;11.23;5.87;;;-0.70;99.90;;;;;;4194736;28;20522;-67
2023/01/26 04:36:53;;;;;;;9.83;5.43;;;-0.70;99.90;;;;;;4193451;28;20269;-66
2023/01/26 04:38:55;;;;;;;14.00;5.93;;;-0.70;99.90;;;;;;4195007;28;20319;-67
2023/01/26 04:40:56;;;;;;;13.60;7.17;;;-0.70;99.90;;;;;;4193500;28;20258;-66
2023/01/26 04:42:57;;;;;;;12.20;5.83;;;-0.70;99.90;;;;;;4195413;28;20300;-66
2023/01/26 04:44:58;;;;;;;15.47;6.00;;;-0.70;99.90;;;;;;4193663;28;20664;-66
2023/01/26 04:47:00;;;;;;;11.93;5.50;;;-0.70;99.90;;;;;;4194630;28;20315;-66
2023/01/26 04:49:01;;;;;;;10.03;5.57;;;-0.80;99.90;;;;;;4187845;28;20302;-67
2023/01/26 04:51:10;;;;;;;15.47;5.70;;;-0.70;99.90;;;;;;4177996;28;20311;-66
2023/01/26 04:53:12;;;;;;;16.00;5.67;;;-0.70;99.90;;;;;;4177257;28;20246;-66
2023/01/26 04:55:13;;;;;;;9.93;5.70;;;-0.70;99.90;;;;;;4177985;28;20662;-67
2023/01/26 04:57:15;;;;;;;12.70;5.67;;;-0.70;99.90;;;;;;4177522;28;20270;-67
2023/01/26 04:59:16;;;;;;;10.40;4.73;;;-0.80;99.90;;;;;;4183148;28;20850;-67
2023/01/26 05:01:18;;;;;;;14.40;7.07;;;-0.70;99.90;;;;;;4185559;28;20292;-68
2023/01/26 05:03:20;;;;;;;16.03;7.00;;;-0.70;99.90;;;;;;4177260;28;20262;-70
2023/01/26 05:05:21;;;;;;;14.27;6.33;;;-0.80;99.90;;;;;;4177925;28;20375;-67
2023/01/26 05:07:22;;;;;;;12.27;5.80;;;-0.80;99.90;;;;;;4179748;28;20630;-68
2023/01/26 05:09:23;;;;;;;15.80;6.30;;;-0.80;99.90;;;;;;4177870;28;20375;-66
2023/01/26 05:11:25;;;;;;;11.57;6.17;;;-0.80;99.90;;;;;;4181634;28;20266;-65
2023/01/26 05:13:26;;;;;;;11.17;5.73;;;-0.80;99.90;;;;;;4194569;28;20379;-66
2023/01/26 05:15:27;;;;;;;12.00;5.80;;;-0.80;99.90;;;;;;4192581;28;20273;-64
2023/01/26 05:17:28;;;;;;;9.70;5.07;;;-0.80;99.90;;;;;;4193490;28;20749;-65
2023/01/26 05:19:29;;;;;;;9.13;4.87;;;-0.90;99.90;;;;;;4190582;28;20763;-63
2023/01/26 05:21:30;;;;;;;10.33;5.40;;;-0.90;99.90;;;;;;4183457;28;20362;-64
2023/01/26 05:23:31;;;;;;;9.53;5.20;;;-0.90;99.90;;;;;;4187643;28;20323;-65
2023/01/26 05:25:33;;;;;;;9.80;4.93;;;-0.90;99.90;;;;;;4194340;28;20679;-65
2023/01/26 05:27:34;;;;;;;9.10;5.43;;;-0.80;99.90;;;;;;4193334;28;20315;-65
2023/01/26 05:29:35;;;;;;;10.87;5.00;;;-0.90;99.90;;;;;;4193982;28;20335;-66
2023/01/26 05:31:36;;;;;;;11.80;5.73;;;-0.80;99.90;;;;;;4190297;28;20274;-66
2023/01/26 05:33:37;;;;;;;15.93;5.50;;;-0.80;99.90;;;;;;4183791;28;20261;-66
2023/01/26 05:35:38;;;;;;;7.73;4.33;;;-0.90;99.90;;;;;;4193711;28;20842;-65
2023/01/26 05:37:44;;;;;;;9.30;5.03;;;-0.90;99.90;;;;;;4193352;28;20270;-65
2023/01/26 05:39:45;;;;;;;9.43;4.50;;;-0.80;99.90;;;;;;4186508;28;20274;-66
2023/01/26 05:41:46;;;;;;;8.43;5.07;;;-0.80;99.90;;;;;;4180107;28;20278;-65
2023/01/26 05:43:47;;;;;;;10.67;5.60;;;-0.80;99.90;;;;;;4185691;28;20761;-62
2023/01/26 05:45:49;;;;;;;11.00;5.97;;;-0.90;99.90;;;;;;4196795;28;20273;-67
2023/01/26 05:47:50;;;;;;;10.03;5.23;;;-0.90;99.90;;;;;;4197385;28;20319;-65
2023/01/26 05:49:51;;;;;;;14.13;6.13;;;-0.90;99.90;;;;;;4196205;28;20351;-65
2023/01/26 05:51:52;;;;;;;10.63;5.83;;;-0.90;99.90;;;;;;4197624;28;20671;-65
2023/01/26 05:53:53;;;;;;;8.73;4.67;;;-0.90;99.90;;;;;;4196105;28;20338;-65
2023/01/26 05:55:55;;;;;;;11.00;5.80;;;-0.90;99.90;;;;;;4197089;28;20273;-65
2023/01/26 05:57:56;;;;;;;13.27;5.70;;;-0.90;99.90;;;;;;4196181;28;20257;-65
2023/01/26 05:59:57;;;;;;;9.33;5.33;;;-0.90;99.90;;;;;;4196782;28;20257;-65
2023/01/26 06:01:59;;;;;;;10.90;5.50;;;-0.90;99.90;;;;;;4194999;28;20319;-65
2023/01/26 06:04:00;;;;;;;11.23;5.53;;;-0.90;99.90;;;;;;4195840;28;20286;-65
2023/01/26 06:06:01;;;;;;;11.23;5.57;;;-0.90;99.90;;;;;;4196912;28;20273;-64
2023/01/26 06:08:02;;;;;;;11.77;5.37;;;-0.90;99.90;;;;;;4195871;28;20740;-65
2023/01/26 06:10:04;;;;;;;10.63;5.00;;;-0.90;99.90;;;;;;4197064;28;20293;-65
2023/01/26 06:12:11;;;;;;;10.10;4.77;;;-0.90;99.90;;;;;;4189632;28;20262;-64
2023/01/26 06:14:13;;;;;;;13.13;5.93;;;-0.90;99.90;;;;;;4192320;28;20339;-64
2023/01/26 06:16:14;;;;;;;14.03;6.57;;;-1.00;99.90;;;;;;4185172;28;20281;-66
2023/01/26 06:18:15;;;;;;;14.47;8.53;;;-0.90;99.90;;;;;;4187149;28;20815;-64
2023/01/26 06:20:16;;;;;;;60.83;27.70;;;-0.90;99.90;;;;;;4187187;28;20311;-64
2023/01/26 06:22:18;;;;;;;16.10;8.90;;;-0.90;99.90;;;;;;4192779;28;20335;-64
2023/01/26 06:24:19;;;;;;;29.23;15.50;;;-0.90;99.90;;;;;;4190049;28;20334;-64
2023/01/26 06:26:20;;;;;;;40.67;18.17;;;-0.90;99.90;;;;;;4190078;28;20278;-65
2023/01/26 06:28:21;;;;;;;105.67;57.63;;;-0.90;99.90;;;;;;4192830;28;20258;-66
2023/01/26 06:30:22;;;;;;;42.07;23.87;;;-0.90;99.90;;;;;;4191678;28;20582;-65
2023/01/26 06:32:24;;;;;;;51.27;27.20;;;-0.80;99.90;;;;;;4191915;28;20741;-65
2023/01/26 06:34:25;;;;;;;19.50;10.37;;;-0.90;99.90;;;;;;4196647;28;20273;-64
2023/01/26 06:36:27;;;;;;;15.97;8.33;;;-0.90;99.90;;;;;;4196037;28;20277;-65
2023/01/26 06:38:28;;;;;;;53.70;24.07;;;-0.90;99.90;;;;;;4195869;28;20269;-64
2023/01/26 06:40:29;;;;;;;144.00;57.37;;;-0.90;99.90;;;;;;4196397;28;20273;-65
2023/01/26 06:42:31;;;;;;;38.10;21.20;;;-0.90;99.90;;;;;;4194505;28;20277;-64
2023/01/26 06:44:32;;;;;;;20.40;9.93;;;-0.90;99.90;;;;;;4189615;28;20275;-64
2023/01/26 06:46:33;;;;;;;21.03;9.93;;;-0.90;99.90;;;;;;4178794;28;20254;-64
2023/01/26 06:48:35;;;;;;;11.77;6.93;;;-0.80;99.90;;;;;;4180176;28;20262;-64
2023/01/26 06:50:38;;;;;;;12.53;6.30;;;-0.80;99.90;;;;;;4189815;28;20305;-65
2023/01/26 06:52:41;;;;;;;11.10;6.03;;;-0.80;99.90;;;;;;4196137;28;20285;-64
2023/01/26 06:54:42;;;;;;;10.27;6.00;;;-0.80;99.90;;;;;;4193772;28;20298;-65
2023/01/26 06:56:44;;;;;;;12.03;6.30;;;-0.80;99.90;;;;;;4180267;28;20680;-65
2023/01/26 06:58:45;;;;;;;11.80;5.13;;;-0.80;99.90;;;;;;4179265;28;20274;-65
2023/01/26 07:00:46;;;;;;;14.53;5.70;;;-0.80;99.90;;;;;;4183404;28;20270;-64
2023/01/26 07:02:48;;;;;;;13.00;6.30;;;-0.70;99.90;;;;;;4179323;28;20359;-65
2023/01/26 07:04:49;;;;;;;10.93;5.53;;;-0.70;99.90;;;;;;4180546;28;20258;-65
2023/01/26 07:06:50;;;;;;;13.63;5.87;;;-0.70;99.90;;;;;;4195674;28;20311;-65
2023/01/26 07:08:51;;;;;;;13.67;5.50;;;-0.70;99.90;;;;;;4195536;28;20327;-65
2023/01/26 07:10:53;;;;;;;17.10;5.80;;;-0.70;99.90;;;;;;4188708;28;20774;-65
2023/01/26 07:12:54;;;;;;;9.30;4.90;;;-0.60;99.90;;;;;;4184823;28;20281;-65
2023/01/26 07:14:55;;;;;;;8.37;4.50;;;-0.60;99.90;;;;;;4206965;28;20361;-65
2023/01/26 07:16:56;;;;;;;11.53;5.77;;;-0.60;99.90;;;;;;4211660;28;20691;-65
2023/01/26 07:18:57;;;;;;;12.83;6.00;;;-0.60;99.90;;;;;;4212912;28;20724;-64
2023/01/26 07:21:03;;;;;;;13.40;5.83;;;-0.60;99.90;;;;;;4211883;28;20359;-65
2023/01/26 07:23:04;;;;;;;12.30;6.33;;;-0.50;99.90;;;;;;4205153;28;21102;-65
2023/01/26 07:25:05;;;;;;;12.17;6.33;;;-0.50;99.90;;;;;;4194219;28;20273;-65
2023/01/26 07:27:06;;;;;;;11.20;6.03;;;-0.50;99.90;;;;;;4196316;28;20269;-65
2023/01/26 07:29:08;;;;;;;10.33;5.80;;;-0.50;99.90;;;;;;4194976;28;20372;-68
2023/01/26 07:31:11;;;;;;;11.10;5.80;;;-0.50;99.90;;;;;;4195597;28;20360;-65
2023/01/26 07:33:12;;;;;;;10.37;5.60;;;-0.50;99.90;;;;;;4190475;28;20324;-64
2023/01/26 07:35:13;;;;;;;10.07;5.87;;;-0.50;99.90;;;;;;4179181;28;20297;-65
2023/01/26 07:37:14;;;;;;;12.17;6.10;;;-0.40;99.90;;;;;;4194493;28;20753;-68
2023/01/26 07:39:15;;;;;;;14.03;6.47;;;-0.40;99.90;;;;;;4193706;28;20261;-67
2023/01/26 07:41:18;;;;;;;13.10;6.30;;;-0.40;99.90;;;;;;4189733;28;20308;-66
2023/01/26 07:43:19;;;;;;;13.83;7.93;;;-0.40;99.90;;;;;;4178409;28;20278;-64
2023/01/26 07:45:20;;;;;;;14.57;7.70;;;-0.40;99.90;;;;;;4178823;28;20319;-64
2023/01/26 07:47:21;;;;;;;10.33;5.70;;;-0.30;99.90;;;;;;4177467;28;20258;-64
2023/01/26 07:49:22;;;;;;;12.63;6.57;;;-0.30;99.90;;;;;;4177312;28;20259;-68
2023/01/26 07:51:24;;;;;;;12.20;6.10;;;-0.30;99.90;;;;;;4182529;28;20733;-64
2023/01/26 07:53:28;;;;;;;12.93;5.87;;;-0.30;99.90;;;;;;4177870;28;20281;-64
2023/01/26 07:55:29;;;;;;;12.47;7.33;;;-0.20;99.90;;;;;;4182408;28;20311;-69
2023/01/26 07:57:30;;;;;;;12.47;6.47;;;-0.20;99.90;;;;;;4195537;28;20261;-64
2023/01/26 07:59:31;;;;;;;10.70;5.77;;;-0.10;99.90;;;;;;4194561;28;20265;-70
2023/01/26 08:01:33;;;;;;;11.50;5.87;;;-0.10;99.90;;;;;;4188823;28;20286;-66
2023/01/26 08:03:34;;;;;;;21.10;7.77;;;0.00;99.90;;;;;;4178395;28;20265;-70
2023/01/26 08:05:37;;;;;;;10.50;5.00;;;0.00;99.90;;;;;;4183212;28;20327;-66
2023/01/26 08:07:38;;;;;;;8.97;5.20;;;0.00;99.90;;;;;;4194253;28;20269;-68
2023/01/26 08:09:40;;;;;;;12.73;7.13;;;0.10;99.90;;;;;;4198240;28;20269;-66
2023/01/26 08:11:41;;;;;;;26.93;15.23;;;0.20;99.90;;;;;;4188732;28;20331;-67
2023/01/26 08:13:42;;;;;;;19.57;9.37;;;0.30;99.90;;;;;;4192272;28;20764;-65
2023/01/26 08:15:43;;;;;;;14.83;6.80;;;0.30;99.90;;;;;;4178605;28;20662;-64
2023/01/26 08:17:44;;;;;;;15.40;7.50;;;0.40;99.90;;;;;;4177458;28;20677;-65
2023/01/26 08:19:46;;;;;;;13.87;6.20;;;0.50;99.90;;;;;;4179976;28;20730;-65
2023/01/26 08:21:47;;;;;;;16.97;9.00;;;0.40;99.90;;;;;;4192370;28;20308;-64
2023/01/26 08:23:49;;;;;;;16.13;8.03;;;0.50;99.90;;;;;;4194703;28;20710;-65
2023/01/26 08:25:50;;;;;;;10.47;6.17;;;0.40;99.90;;;;;;4186689;28;20262;-68
2023/01/26 08:27:53;;;;;;;12.83;6.20;;;0.40;99.90;;;;;;4178290;28;20316;-65
2023/01/26 08:29:55;;;;;;;12.07;6.13;;;0.30;99.90;;;;;;4177045;28;20855;-64
2023/01/26 08:31:56;;;;;;;11.07;6.60;;;0.30;99.90;;;;;;4177154;28;20285;-64
2023/01/26 08:33:57;;;;;;;10.27;5.50;;;0.30;99.90;;;;;;4176997;28;20819;-66
2023/01/26 08:36:07;;;;;;;18.27;6.03;;;0.30;99.90;;;;;;4178080;28;20347;-64
2023/01/26 08:38:08;;;;;;;12.03;6.00;;;0.30;99.90;;;;;;4185124;28;20270;-65
2023/01/26 08:40:10;;;;;;;11.33;6.07;;;0.30;99.90;;;;;;4178157;28;20787;-65
2023/01/26 08:42:11;;;;;;;10.63;6.17;;;0.30;99.90;;;;;;4177713;28;20267;-70
2023/01/26 08:44:12;;;;;;;9.73;5.50;;;0.30;99.90;;;;;;4183638;28;20753;-66
2023/01/26 08:46:14;;;;;;;13.47;6.37;;;0.30;99.90;;;;;;4194345;28;20262;-66
2023/01/26 08:48:15;;;;;;;12.37;6.73;;;0.30;99.90;;;;;;4193859;28;20657;-67
2023/01/26 08:50:16;;;;;;;11.60;6.23;;;0.30;99.90;;;;;;4188382;28;20306;-65
2023/01/26 08:52:17;;;;;;;10.83;5.67;;;0.30;99.90;;;;;;4177004;28;20803;-65
2023/01/26 08:54:19;;;;;;;10.07;6.13;;;0.30;99.90;;;;;;4178678;28;20434;-64
2023/01/26 08:56:20;;;;;;;11.43;5.20;;;0.30;99.90;;;;;;4179590;28;20396;-66
2023/01/26 08:58:21;;;;;;;10.37;5.50;;;0.30;99.90;;;;;;4194122;28;20285;-69
2023/01/26 09:00:23;;;;;;;12.00;6.07;;;0.40;99.90;;;;;;4192892;28;20281;-65
2023/01/26 09:02:25;;;;;;;8.77;5.43;;;0.30;99.90;;;;;;4191608;28;20270;-65
2023/01/26 09:04:26;;;;;;;12.57;6.00;;;0.30;99.90;;;;;;4191577;28;20331;-66
2023/01/26 09:06:27;;;;;;;15.37;5.20;;;0.40;99.90;;;;;;4209816;28;20257;-69
2023/01/26 09:08:28;;;;;;;9.87;5.30;;;0.30;99.90;;;;;;4203963;28;20319;-68
2023/01/26 09:10:29;;;;;;;19.43;5.13;;;0.30;99.90;;;;;;4177870;28;20343;-71
2023/01/26 09:12:30;;;;;;;10.37;5.17;;;0.40;99.90;;;;;;4176739;28;20266;-70
2023/01/26 09:14:31;;;;;;;11.97;6.13;;;0.30;99.90;;;;;;4177409;28;20316;-65
2023/01/26 09:16:33;;;;;;;10.90;5.30;;;0.40;99.90;;;;;;4178963;28;20274;-66
2023/01/26 09:18:34;;;;;;;15.77;5.77;;;0.40;99.90;;;;;;4193312;28;20281;-69
2023/01/26 09:20:37;;;;;;;13.37;7.60;;;0.40;99.90;;;;;;4192694;28;21119;-65
2023/01/26 09:22:38;;;;;;;9.67;5.90;;;0.50;99.90;;;;;;4192918;28;20261;-65
2023/01/26 09:24:39;;;;;;;11.83;6.00;;;0.50;99.90;;;;;;4194105;28;20656;-64
2023/01/26 09:26:40;;;;;;;11.50;6.53;;;0.50;99.90;;;;;;4193102;28;20669;-64
2023/01/26 09:28:42;;;;;;;15.43;7.13;;;0.60;99.90;;;;;;4194000;28;20304;-66
2023/01/26 09:30:43;;;;;;;9.13;5.63;;;0.70;99.90;;;;;;4192498;28;20773;-69
2023/01/26 09:32:44;;;;;;;8.87;5.40;;;0.70;99.90;;;;;;4192594;28;20327;-67
2023/01/26 09:34:45;;;;;;;10.97;6.47;;;0.70;99.90;;;;;;4186719;28;20290;-66
2023/01/26 09:36:46;;;;;;;9.83;5.60;;;0.80;99.90;;;;;;4177277;28;20317;-68
2023/01/26 09:38:48;;;;;;;8.97;5.50;;;0.80;99.90;;;;;;4176275;28;20324;-65
2023/01/26 09:41:14;;;;;;;13.07;6.20;;;0.80;99.90;;;;;;4176098;28;20860;-66
2023/01/26 09:43:37;;;;;;;11.10;5.30;;;0.80;99.90;;;;;;4177096;28;20285;-69
2023/01/26 09:45:46;;;;;;;12.23;5.57;;;0.70;99.90;;;;;;4177759;28;20286;-66
2023/01/26 09:48:07;;;;;;;17.87;6.30;;;0.70;99.90;;;;;;4175566;28;20278;-65
2023/01/26 09:50:17;;;;;;;12.73;5.80;;;0.70;99.90;;;;;;4176758;28;20847;-64
2023/01/26 09:52:36;;;;;;;13.37;6.27;;;0.80;99.90;;;;;;4175938;28;20281;-66
2023/01/26 09:54:46;;;;;;;11.70;6.50;;;0.80;99.90;;;;;;4191127;28;20262;-65
2023/01/26 09:56:47;;;;;;;9.17;4.50;;;0.90;99.90;;;;;;4192046;28;20915;-66
2023/01/26 09:58:57;;;;;;;13.67;5.73;;;0.90;99.90;;;;;;4197967;28;20268;-66
2023/01/26 10:01:01;;;;;;;7.25;4.40;;;0.90;99.90;;;;;;4209170;28;20329;-69
2023/01/26 10:03:30;;;;;;;9.73;4.47;;;0.80;99.90;;;;;;4208707;28;20040;-64
2023/01/26 10:05:43;;;;;;;8.60;4.70;;;0.80;99.90;;;;;;4204691;28;20258;-65
2023/01/26 10:07:45;;;;;;;9.30;4.87;;;0.80;99.90;;;;;;4194007;28;20277;-67
2023/01/26 10:09:49;;;;;;;8.63;4.50;;;0.90;99.90;;;;;;4190567;28;20277;-66
2023/01/26 10:11:55;;;;;;;8.20;4.40;;;1.00;99.90;;;;;;4179884;28;20810;-65
2023/01/26 10:14:23;;;;;;;9.03;5.00;;;1.00;99.90;;;;;;4192624;28;20830;-64
2023/01/26 10:16:25;;;;;;;7.70;4.77;;;1.10;99.90;;;;;;4182607;28;20289;-64
2023/01/26 10:18:33;;;;;;;11.40;5.20;;;1.10;99.90;;;;;;4186137;28;20289;-66
2023/01/26 10:20:39;;;;;;;12.03;4.33;;;1.20;99.90;;;;;;4183418;28;20289;-66
2023/01/26 10:23:05;;;;;;;10.57;4.50;;;1.20;99.90;;;;;;4179098;28;20286;-65
2023/01/26 10:25:19;;;;;;;7.57;3.83;;;1.10;99.90;;;;;;4179231;28;20627;-65
2023/01/26 10:27:21;;;;;;;8.90;5.23;;;1.10;99.90;;;;;;4178780;28;20323;-65
2023/01/26 10:29:22;;;;;;;10.80;5.93;;;1.10;99.90;;;;;;4182404;28;20274;-65
2023/01/26 10:31:33;;;;;;;9.13;5.13;;;1.20;99.90;;;;;;4195393;28;20725;-65
2023/01/26 10:33:36;;;;;;;8.30;4.15;;;1.30;99.90;;;;;;4195080;28;20777;-64
2023/01/26 10:35:37;;;;;;;10.67;5.47;;;1.30;99.90;;;;;;4177534;28;20088;-66
2023/01/26 10:37:38;;;;;;;8.63;4.60;;;1.30;99.90;;;;;;4194473;28;20270;-65
2023/01/26 10:40:03;;;;;;;14.07;5.10;;;1.30;99.90;;;;;;4195133;28;20273;-65
2023/01/26 10:42:04;;;;;;;11.97;5.73;;;1.30;99.90;;;;;;4194724;28;20281;-65
2023/01/26 10:44:17;;;;;;;9.40;5.57;;;1.40;99.90;;;;;;4195906;28;20651;-64
2023/01/26 10:46:29;;;;;;;8.03;4.17;;;1.50;99.90;;;;;;4195969;28;20335;-65
2023/01/26 10:48:33;;;;;;;12.37;4.87;;;1.50;99.90;;;;;;4194895;28;20303;-65
2023/01/26 10:50:34;;;;;;;10.10;4.73;;;1.40;99.90;;;;;;4194970;28;20286;-66
2023/01/26 10:52:36;;;;;;;10.37;5.23;;;1.40;99.90;;;;;;4193771;28;20355;-65
2023/01/26 10:54:38;;;;;;;15.63;4.97;;;1.40;99.90;;;;;;4179058;28;20270;-66
2023/01/26 10:56:47;;;;;;;9.50;4.27;;;1.40;99.90;;;;;;4177467;28;20790;-67
2023/01/26 10:58:57;;;;;;;11.60;5.10;;;1.40;99.90;;;;;;4197568;28;20273;-67
2023/01/26 11:00:58;;;;;;;10.17;5.00;;;1.50;99.90;;;;;;4212746;28;20318;-66
2023/01/26 11:03:02;;;;;;;17.17;4.83;;;1.50;99.90;;;;;;4211700;28;20248;-64
2023/01/26 11:05:04;;;;;;;9.53;4.70;;;1.60;99.90;;;;;;4194030;28;20335;-66
2023/01/26 11:07:26;;;;;;;16.10;5.20;;;1.70;99.90;;;;;;4178160;28;20692;-64
2023/01/26 11:09:30;;;;;;;7.97;4.90;;;1.70;99.90;;;;;;4179661;28;20274;-67
2023/01/26 11:11:31;;;;;;;11.03;4.53;;;1.60;99.90;;;;;;4177975;28;20298;-65
2023/01/26 11:13:33;;;;;;;8.40;4.60;;;1.50;99.90;;;;;;4185012;28;20319;-66
2023/01/26 11:15:38;;;;;;;25.43;6.77;;;1.60;99.90;;;;;;4186473;28;20758;-65
2023/01/26 11:17:46;;;;;;;11.07;4.83;;;1.50;99.90;;;;;;4186484;28;20305;-65
2023/01/26 11:20:06;;;;;;;9.00;4.13;;;1.60;99.90;;;;;;4179731;28;20270;-66
2023/01/26 11:22:16;;;;;;;10.27;4.43;;;1.70;99.90;;;;;;4195020;28;20740;-67
2023/01/26 11:24:30;;;;;;;5.85;3.60;;;1.60;99.90;;;;;;4193251;28;20348;-65
2023/01/26 11:26:50;;;;;;;5.90;3.80;;;1.50;99.90;;;;;;4188818;28;20037;-63